Terminal Aerodrome Forecast
Issued by NWS

Home | Current Version | Previous Version | Text Only | Print | Product List | Glossary On
Versions: 1 2 3 4 5 6 7 8 9 10 11 12 13 14 15 16 17 18 19 20 21 22
000
FTUS41 KPHI 242340 CCA
TAFMIV
TAF COR
KMIV 242340Z 2500/2524 06012G20KT P6SM VCSH SCT025 OVC035
      TEMPO 2500/2502 3SM -SHRA BR OVC025
     FM250200 06010G18KT P6SM VCSH OVC025
     FM250400 06012KT 6SM -SHRA BR OVC008
     FM250600 06012G20KT 5SM -SHRA OVC005
     FM251000 07015G25KT 2SM RA OVC004
     FM252300 06012G20KT 4SM -SHRA OVC005=

USA.gov is the U.S. government's official web portal to all federal, state and local government web resources and services.